sensor_id;sensor_type;location;lat;lon;timestamp;P1;durP1;ratioP1;P2;durP2;ratioP2
66163;SDS011;52962;51.088;3.096;2023-04-19T00:00:02;6.60;;;5.97;;
66163;SDS011;52962;51.088;3.096;2023-04-19T00:02:35;6.78;;;5.93;;
66163;SDS011;52962;51.088;3.096;2023-04-19T00:05:03;5.70;;;4.95;;
66163;SDS011;52962;51.088;3.096;2023-04-19T00:07:33;6.57;;;5.93;;
66163;SDS011;52962;51.088;3.096;2023-04-19T00:10:01;7.35;;;6.68;;
66163;SDS011;52962;51.088;3.096;2023-04-19T00:12:29;6.05;;;5.53;;
66163;SDS011;52962;51.088;3.096;2023-04-19T00:14:57;7.82;;;6.28;;
66163;SDS011;52962;51.088;3.096;2023-04-19T00:17:26;6.97;;;6.07;;
66163;SDS011;52962;51.088;3.096;2023-04-19T00:19:56;5.80;;;5.15;;
66163;SDS011;52962;51.088;3.096;2023-04-19T00:22:24;7.93;;;6.55;;
66163;SDS011;52962;51.088;3.096;2023-04-19T00:24:52;5.20;;;4.35;;
66163;SDS011;52962;51.088;3.096;2023-04-19T00:27:20;6.07;;;4.93;;
66163;SDS011;52962;51.088;3.096;2023-04-19T00:29:48;6.25;;;5.47;;
66163;SDS011;52962;51.088;3.096;2023-04-19T00:32:17;5.60;;;5.10;;
66163;SDS011;52962;51.088;3.096;2023-04-19T00:34:45;5.78;;;4.47;;
66163;SDS011;52962;51.088;3.096;2023-04-19T00:37:14;7.88;;;6.13;;
66163;SDS011;52962;51.088;3.096;2023-04-19T00:39:42;6.75;;;6.15;;
66163;SDS011;52962;51.088;3.096;2023-04-19T00:42:10;7.30;;;6.10;;
66163;SDS011;52962;51.088;3.096;2023-04-19T00:44:38;7.05;;;6.07;;
66163;SDS011;52962;51.088;3.096;2023-04-19T00:47:07;8.20;;;5.72;;
66163;SDS011;52962;51.088;3.096;2023-04-19T00:49:35;7.45;;;6.65;;
66163;SDS011;52962;51.088;3.096;2023-04-19T00:52:04;6.82;;;5.88;;
66163;SDS011;52962;51.088;3.096;2023-04-19T00:54:36;5.57;;;5.15;;
66163;SDS011;52962;51.088;3.096;2023-04-19T00:57:07;6.35;;;5.72;;
66163;SDS011;52962;51.088;3.096;2023-04-19T00:59:35;6.45;;;5.80;;
66163;SDS011;52962;51.088;3.096;2023-04-19T01:04:32;6.07;;;5.43;;
66163;SDS011;52962;51.088;3.096;2023-04-19T01:07:02;5.40;;;4.88;;
66163;SDS011;52962;51.088;3.096;2023-04-19T01:09:30;6.97;;;6.20;;
66163;SDS011;52962;51.088;3.096;2023-04-19T01:12:00;5.97;;;5.47;;
66163;SDS011;52962;51.088;3.096;2023-04-19T01:14:29;6.05;;;5.45;;
66163;SDS011;52962;51.088;3.096;2023-04-19T01:16:56;7.53;;;6.22;;
66163;SDS011;52962;51.088;3.096;2023-04-19T01:19:25;6.28;;;5.57;;
66163;SDS011;52962;51.088;3.096;2023-04-19T01:24:25;6.05;;;5.47;;
66163;SDS011;52962;51.088;3.096;2023-04-19T01:26:53;5.93;;;5.40;;
66163;SDS011;52962;51.088;3.096;2023-04-19T01:29:21;6.75;;;6.05;;
66163;SDS011;52962;51.088;3.096;2023-04-19T01:31:50;8.10;;;6.05;;
66163;SDS011;52962;51.088;3.096;2023-04-19T01:34:19;7.43;;;6.72;;
66163;SDS011;52962;51.088;3.096;2023-04-19T01:36:48;6.75;;;5.97;;
66163;SDS011;52962;51.088;3.096;2023-04-19T01:39:16;5.95;;;5.35;;
66163;SDS011;52962;51.088;3.096;2023-04-19T01:41:46;6.72;;;5.63;;
66163;SDS011;52962;51.088;3.096;2023-04-19T01:44:14;6.70;;;5.65;;
66163;SDS011;52962;51.088;3.096;2023-04-19T01:46:42;6.40;;;5.80;;
66163;SDS011;52962;51.088;3.096;2023-04-19T01:49:11;10.48;;;5.82;;
66163;SDS011;52962;51.088;3.096;2023-04-19T01:51:41;6.00;;;5.43;;
66163;SDS011;52962;51.088;3.096;2023-04-19T01:54:09;7.30;;;6.20;;
66163;SDS011;52962;51.088;3.096;2023-04-19T01:56:37;6.95;;;6.13;;
66163;SDS011;52962;51.088;3.096;2023-04-19T01:59:07;8.52;;;6.22;;
66163;SDS011;52962;51.088;3.096;2023-04-19T02:01:35;7.47;;;5.55;;
66163;SDS011;52962;51.088;3.096;2023-04-19T02:04:03;6.47;;;5.88;;
66163;SDS011;52962;51.088;3.096;2023-04-19T02:09:02;5.72;;;4.88;;
66163;SDS011;52962;51.088;3.096;2023-04-19T02:11:30;5.90;;;5.00;;
66163;SDS011;52962;51.088;3.096;2023-04-19T02:13:59;6.47;;;5.70;;
66163;SDS011;52962;51.088;3.096;2023-04-19T02:16:28;6.75;;;6.15;;
66163;SDS011;52962;51.088;3.096;2023-04-19T02:18:59;6.30;;;5.35;;
66163;SDS011;52962;51.088;3.096;2023-04-19T02:21:28;7.22;;;6.38;;
66163;SDS011;52962;51.088;3.096;2023-04-19T02:23:57;6.85;;;5.93;;
66163;SDS011;52962;51.088;3.096;2023-04-19T02:26:25;8.68;;;5.88;;
66163;SDS011;52962;51.088;3.096;2023-04-19T02:28:53;8.05;;;7.25;;
66163;SDS011;52962;51.088;3.096;2023-04-19T02:31:21;7.13;;;5.20;;
66163;SDS011;52962;51.088;3.096;2023-04-19T02:33:51;7.32;;;6.40;;
66163;SDS011;52962;51.088;3.096;2023-04-19T02:36:19;8.70;;;6.20;;
66163;SDS011;52962;51.088;3.096;2023-04-19T02:38:47;8.00;;;7.10;;
66163;SDS011;52962;51.088;3.096;2023-04-19T02:41:15;6.45;;;5.78;;
66163;SDS011;52962;51.088;3.096;2023-04-19T02:43:43;8.40;;;6.43;;
66163;SDS011;52962;51.088;3.096;2023-04-19T02:46:11;5.15;;;4.35;;
66163;SDS011;52962;51.088;3.096;2023-04-19T02:48:40;6.45;;;5.75;;
66163;SDS011;52962;51.088;3.096;2023-04-19T02:53:43;6.38;;;5.32;;
66163;SDS011;52962;51.088;3.096;2023-04-19T02:56:11;7.35;;;5.60;;
66163;SDS011;52962;51.088;3.096;2023-04-19T02:58:39;9.55;;;6.75;;
66163;SDS011;52962;51.088;3.096;2023-04-19T03:01:07;6.35;;;4.88;;
66163;SDS011;52962;51.088;3.096;2023-04-19T03:03:36;6.75;;;6.05;;
66163;SDS011;52962;51.088;3.096;2023-04-19T03:06:05;6.65;;;6.00;;
66163;SDS011;52962;51.088;3.096;2023-04-19T03:08:35;6.18;;;5.55;;
66163;SDS011;52962;51.088;3.096;2023-04-19T03:11:04;6.22;;;5.53;;
66163;SDS011;52962;51.088;3.096;2023-04-19T03:13:33;7.85;;;6.15;;
66163;SDS011;52962;51.088;3.096;2023-04-19T03:16:02;8.43;;;7.32;;
66163;SDS011;52962;51.088;3.096;2023-04-19T03:18:31;6.82;;;5.95;;
66163;SDS011;52962;51.088;3.096;2023-04-19T03:21:01;5.82;;;5.22;;
66163;SDS011;52962;51.088;3.096;2023-04-19T03:23:40;7.15;;;6.45;;
66163;SDS011;52962;51.088;3.096;2023-04-19T03:26:08;6.80;;;5.97;;
66163;SDS011;52962;51.088;3.096;2023-04-19T03:28:48;6.88;;;6.15;;
66163;SDS011;52962;51.088;3.096;2023-04-19T03:31:35;5.25;;;4.50;;
66163;SDS011;52962;51.088;3.096;2023-04-19T03:34:04;8.43;;;7.53;;
66163;SDS011;52962;51.088;3.096;2023-04-19T03:36:38;9.52;;;6.80;;
66163;SDS011;52962;51.088;3.096;2023-04-19T03:39:08;7.22;;;6.22;;
66163;SDS011;52962;51.088;3.096;2023-04-19T03:41:39;7.18;;;6.45;;
66163;SDS011;52962;51.088;3.096;2023-04-19T03:44:21;7.88;;;6.43;;
66163;SDS011;52962;51.088;3.096;2023-04-19T03:46:49;7.30;;;6.57;;
66163;SDS011;52962;51.088;3.096;2023-04-19T03:49:21;7.75;;;7.00;;
66163;SDS011;52962;51.088;3.096;2023-04-19T03:51:59;6.72;;;6.00;;
66163;SDS011;52962;51.088;3.096;2023-04-19T03:54:29;6.32;;;5.70;;
66163;SDS011;52962;51.088;3.096;2023-04-19T03:56:58;7.70;;;6.10;;
66163;SDS011;52962;51.088;3.096;2023-04-19T04:01:56;5.40;;;4.90;;
66163;SDS011;52962;51.088;3.096;2023-04-19T04:04:25;6.03;;;5.40;;
66163;SDS011;52962;51.088;3.096;2023-04-19T04:06:53;9.88;;;6.90;;
66163;SDS011;52962;51.088;3.096;2023-04-19T04:09:21;9.00;;;5.82;;
66163;SDS011;52962;51.088;3.096;2023-04-19T04:14:19;5.03;;;4.50;;
66163;SDS011;52962;51.088;3.096;2023-04-19T04:16:47;6.50;;;4.78;;
66163;SDS011;52962;51.088;3.096;2023-04-19T04:21:44;7.35;;;5.53;;
66163;SDS011;52962;51.088;3.096;2023-04-19T04:24:12;10.10;;;5.28;;
66163;SDS011;52962;51.088;3.096;2023-04-19T04:26:54;6.88;;;6.07;;
66163;SDS011;52962;51.088;3.096;2023-04-19T04:29:27;6.55;;;5.78;;
66163;SDS011;52962;51.088;3.096;2023-04-19T04:31:58;7.32;;;5.88;;
66163;SDS011;52962;51.088;3.096;2023-04-19T04:34:33;8.00;;;6.10;;
66163;SDS011;52962;51.088;3.096;2023-04-19T04:37:07;6.88;;;5.55;;
66163;SDS011;52962;51.088;3.096;2023-04-19T04:39:37;7.85;;;6.88;;
66163;SDS011;52962;51.088;3.096;2023-04-19T04:42:09;6.40;;;5.80;;
66163;SDS011;52962;51.088;3.096;2023-04-19T04:44:37;6.75;;;5.88;;
66163;SDS011;52962;51.088;3.096;2023-04-19T04:47:08;7.82;;;6.15;;
66163;SDS011;52962;51.088;3.096;2023-04-19T04:49:41;6.70;;;6.00;;
66163;SDS011;52962;51.088;3.096;2023-04-19T04:52:09;6.88;;;5.82;;
66163;SDS011;52962;51.088;3.096;2023-04-19T04:54:48;7.50;;;6.28;;
66163;SDS011;52962;51.088;3.096;2023-04-19T04:57:25;8.35;;;6.47;;
66163;SDS011;52962;51.088;3.096;2023-04-19T04:59:53;8.73;;;6.22;;
66163;SDS011;52962;51.088;3.096;2023-04-19T05:02:24;9.68;;;8.38;;
66163;SDS011;52962;51.088;3.096;2023-04-19T05:04:53;8.30;;;6.05;;
66163;SDS011;52962;51.088;3.096;2023-04-19T05:07:21;6.55;;;5.85;;
66163;SDS011;52962;51.088;3.096;2023-04-19T05:09:49;6.75;;;5.82;;
66163;SDS011;52962;51.088;3.096;2023-04-19T05:12:22;7.65;;;5.93;;
66163;SDS011;52962;51.088;3.096;2023-04-19T05:17:20;5.97;;;5.45;;
66163;SDS011;52962;51.088;3.096;2023-04-19T05:19:48;6.47;;;5.68;;
66163;SDS011;52962;51.088;3.096;2023-04-19T05:22:16;6.25;;;5.53;;
66163;SDS011;52962;51.088;3.096;2023-04-19T05:24:45;8.13;;;6.10;;
66163;SDS011;52962;51.088;3.096;2023-04-19T05:27:16;7.80;;;6.72;;
66163;SDS011;52962;51.088;3.096;2023-04-19T05:29:44;7.28;;;5.45;;
66163;SDS011;52962;51.088;3.096;2023-04-19T05:32:15;10.25;;;6.05;;
66163;SDS011;52962;51.088;3.096;2023-04-19T05:34:49;8.43;;;6.15;;
66163;SDS011;52962;51.088;3.096;2023-04-19T05:37:17;6.72;;;6.03;;
66163;SDS011;52962;51.088;3.096;2023-04-19T05:39:45;7.25;;;6.15;;
66163;SDS011;52962;51.088;3.096;2023-04-19T05:42:13;11.32;;;7.00;;
66163;SDS011;52962;51.088;3.096;2023-04-19T05:44:42;8.20;;;5.80;;
66163;SDS011;52962;51.088;3.096;2023-04-19T05:47:10;8.13;;;5.85;;
66163;SDS011;52962;51.088;3.096;2023-04-19T05:50:03;8.50;;;7.57;;
66163;SDS011;52962;51.088;3.096;2023-04-19T05:52:35;7.28;;;6.55;;
66163;SDS011;52962;51.088;3.096;2023-04-19T05:55:04;6.63;;;5.97;;
66163;SDS011;52962;51.088;3.096;2023-04-19T05:57:33;9.55;;;6.40;;
66163;SDS011;52962;51.088;3.096;2023-04-19T06:00:01;7.13;;;5.70;;
66163;SDS011;52962;51.088;3.096;2023-04-19T06:02:53;9.32;;;7.47;;
66163;SDS011;52962;51.088;3.096;2023-04-19T06:05:23;6.68;;;5.95;;
66163;SDS011;52962;51.088;3.096;2023-04-19T06:07:52;8.07;;;6.47;;
66163;SDS011;52962;51.088;3.096;2023-04-19T06:10:25;7.43;;;6.13;;
66163;SDS011;52962;51.088;3.096;2023-04-19T06:13:06;6.18;;;5.40;;
66163;SDS011;52962;51.088;3.096;2023-04-19T06:15:34;7.00;;;6.25;;
66163;SDS011;52962;51.088;3.096;2023-04-19T06:18:04;6.57;;;6.00;;
66163;SDS011;52962;51.088;3.096;2023-04-19T06:20:46;6.68;;;5.95;;
66163;SDS011;52962;51.088;3.096;2023-04-19T06:23:14;8.20;;;7.25;;
66163;SDS011;52962;51.088;3.096;2023-04-19T06:25:44;6.85;;;6.05;;
66163;SDS011;52962;51.088;3.096;2023-04-19T06:28:14;8.30;;;6.45;;
66163;SDS011;52962;51.088;3.096;2023-04-19T06:30:42;9.40;;;7.65;;
66163;SDS011;52962;51.088;3.096;2023-04-19T06:33:10;7.00;;;6.13;;
66163;SDS011;52962;51.088;3.096;2023-04-19T06:35:38;6.05;;;5.47;;
66163;SDS011;52962;51.088;3.096;2023-04-19T06:38:08;5.57;;;4.97;;
66163;SDS011;52962;51.088;3.096;2023-04-19T06:40:36;5.40;;;4.45;;
66163;SDS011;52962;51.088;3.096;2023-04-19T06:43:04;8.10;;;7.28;;
66163;SDS011;52962;51.088;3.096;2023-04-19T06:45:32;6.97;;;6.22;;
66163;SDS011;52962;51.088;3.096;2023-04-19T06:48:00;8.63;;;7.32;;
66163;SDS011;52962;51.088;3.096;2023-04-19T06:50:28;6.22;;;5.63;;
66163;SDS011;52962;51.088;3.096;2023-04-19T06:52:57;8.07;;;5.95;;
66163;SDS011;52962;51.088;3.096;2023-04-19T06:55:26;7.95;;;6.35;;
66163;SDS011;52962;51.088;3.096;2023-04-19T06:57:55;5.85;;;5.25;;
66163;SDS011;52962;51.088;3.096;2023-04-19T07:00:23;7.35;;;6.65;;
66163;SDS011;52962;51.088;3.096;2023-04-19T07:02:51;7.22;;;5.68;;
66163;SDS011;52962;51.088;3.096;2023-04-19T07:05:20;8.05;;;6.60;;
66163;SDS011;52962;51.088;3.096;2023-04-19T07:07:48;8.65;;;7.78;;
66163;SDS011;52962;51.088;3.096;2023-04-19T07:10:17;5.95;;;5.10;;
66163;SDS011;52962;51.088;3.096;2023-04-19T07:12:46;4.95;;;4.13;;
66163;SDS011;52962;51.088;3.096;2023-04-19T07:15:14;7.00;;;6.35;;
66163;SDS011;52962;51.088;3.096;2023-04-19T07:17:42;3.85;;;3.55;;
66163;SDS011;52962;51.088;3.096;2023-04-19T07:20:11;6.15;;;5.47;;
66163;SDS011;52962;51.088;3.096;2023-04-19T07:22:39;4.35;;;3.97;;
66163;SDS011;52962;51.088;3.096;2023-04-19T07:25:07;3.75;;;3.40;;
66163;SDS011;52962;51.088;3.096;2023-04-19T07:27:36;6.57;;;5.85;;
66163;SDS011;52962;51.088;3.096;2023-04-19T07:30:06;9.25;;;6.47;;
66163;SDS011;52962;51.088;3.096;2023-04-19T07:32:35;7.70;;;6.75;;
66163;SDS011;52962;51.088;3.096;2023-04-19T07:35:04;7.78;;;6.85;;
66163;SDS011;52962;51.088;3.096;2023-04-19T07:37:33;7.40;;;6.53;;
66163;SDS011;52962;51.088;3.096;2023-04-19T07:40:01;7.30;;;6.10;;
66163;SDS011;52962;51.088;3.096;2023-04-19T07:42:30;6.95;;;5.57;;
66163;SDS011;52962;51.088;3.096;2023-04-19T07:47:28;8.05;;;7.25;;
66163;SDS011;52962;51.088;3.096;2023-04-19T07:49:56;8.98;;;7.43;;
66163;SDS011;52962;51.088;3.096;2023-04-19T07:52:24;9.20;;;8.02;;
66163;SDS011;52962;51.088;3.096;2023-04-19T07:54:53;10.00;;;8.20;;
66163;SDS011;52962;51.088;3.096;2023-04-19T07:57:21;6.80;;;5.07;;
66163;SDS011;52962;51.088;3.096;2023-04-19T07:59:49;7.53;;;6.32;;
66163;SDS011;52962;51.088;3.096;2023-04-19T08:02:17;8.75;;;6.60;;
66163;SDS011;52962;51.088;3.096;2023-04-19T08:04:46;8.27;;;7.10;;
66163;SDS011;52962;51.088;3.096;2023-04-19T08:07:15;8.52;;;7.32;;
66163;SDS011;52962;51.088;3.096;2023-04-19T08:09:43;7.97;;;6.85;;
66163;SDS011;52962;51.088;3.096;2023-04-19T08:14:52;9.18;;;6.68;;
66163;SDS011;52962;51.088;3.096;2023-04-19T08:17:36;8.40;;;5.93;;
66163;SDS011;52962;51.088;3.096;2023-04-19T08:20:10;6.40;;;5.72;;
66163;SDS011;52962;51.088;3.096;2023-04-19T08:22:39;7.85;;;7.05;;
66163;SDS011;52962;51.088;3.096;2023-04-19T08:25:07;7.50;;;6.78;;
66163;SDS011;52962;51.088;3.096;2023-04-19T08:27:36;5.35;;;4.85;;
66163;SDS011;52962;51.088;3.096;2023-04-19T08:32:34;6.63;;;5.95;;
66163;SDS011;52962;51.088;3.096;2023-04-19T08:35:04;8.05;;;5.68;;
66163;SDS011;52962;51.088;3.096;2023-04-19T08:37:35;9.02;;;7.22;;
66163;SDS011;52962;51.088;3.096;2023-04-19T08:40:03;7.80;;;7.03;;
66163;SDS011;52962;51.088;3.096;2023-04-19T08:42:32;8.75;;;6.43;;
66163;SDS011;52962;51.088;3.096;2023-04-19T08:45:03;8.40;;;7.28;;
66163;SDS011;52962;51.088;3.096;2023-04-19T08:47:37;8.32;;;6.88;;
66163;SDS011;52962;51.088;3.096;2023-04-19T08:50:09;13.30;;;9.07;;
66163;SDS011;52962;51.088;3.096;2023-04-19T08:52:58;6.68;;;6.13;;
66163;SDS011;52962;51.088;3.096;2023-04-19T08:55:46;8.02;;;6.40;;
66163;SDS011;52962;51.088;3.096;2023-04-19T08:58:18;7.72;;;7.00;;
66163;SDS011;52962;51.088;3.096;2023-04-19T09:01:06;9.30;;;6.00;;
66163;SDS011;52962;51.088;3.096;2023-04-19T09:03:52;8.68;;;6.20;;
66163;SDS011;52962;51.088;3.096;2023-04-19T09:06:23;7.32;;;5.97;;
66163;SDS011;52962;51.088;3.096;2023-04-19T09:08:54;8.57;;;6.40;;
66163;SDS011;52962;51.088;3.096;2023-04-19T09:12:00;6.63;;;5.97;;
66163;SDS011;52962;51.088;3.096;2023-04-19T09:14:29;6.35;;;5.75;;
66163;SDS011;52962;51.088;3.096;2023-04-19T09:19:46;4.93;;;4.40;;
66163;SDS011;52962;51.088;3.096;2023-04-19T09:22:16;7.78;;;6.15;;
66163;SDS011;52962;51.088;3.096;2023-04-19T09:24:46;7.20;;;6.50;;
66163;SDS011;52962;51.088;3.096;2023-04-19T09:27:24;7.07;;;6.38;;
66163;SDS011;52962;51.088;3.096;2023-04-19T09:29:53;5.97;;;4.63;;
66163;SDS011;52962;51.088;3.096;2023-04-19T09:32:22;6.80;;;5.75;;
66163;SDS011;52962;51.088;3.096;2023-04-19T09:34:52;6.82;;;6.13;;
66163;SDS011;52962;51.088;3.096;2023-04-19T09:37:21;7.47;;;6.75;;
66163;SDS011;52962;51.088;3.096;2023-04-19T09:39:54;6.70;;;6.00;;
66163;SDS011;52962;51.088;3.096;2023-04-19T09:42:22;6.85;;;6.22;;
66163;SDS011;52962;51.088;3.096;2023-04-19T09:45:10;7.35;;;6.65;;
66163;SDS011;52962;51.088;3.096;2023-04-19T09:47:59;7.80;;;6.38;;
66163;SDS011;52962;51.088;3.096;2023-04-19T09:50:29;5.30;;;4.90;;
66163;SDS011;52962;51.088;3.096;2023-04-19T09:53:01;8.35;;;6.15;;
66163;SDS011;52962;51.088;3.096;2023-04-19T09:55:31;6.68;;;6.07;;
66163;SDS011;52962;51.088;3.096;2023-04-19T09:58:22;6.78;;;5.88;;
66163;SDS011;52962;51.088;3.096;2023-04-19T10:00:57;4.97;;;4.03;;
66163;SDS011;52962;51.088;3.096;2023-04-19T10:03:40;5.65;;;5.25;;
66163;SDS011;52962;51.088;3.096;2023-04-19T10:06:10;5.78;;;5.22;;
66163;SDS011;52962;51.088;3.096;2023-04-19T10:09:00;5.13;;;4.53;;
66163;SDS011;52962;51.088;3.096;2023-04-19T10:11:32;5.88;;;4.95;;
66163;SDS011;52962;51.088;3.096;2023-04-19T10:14:05;6.32;;;5.63;;
66163;SDS011;52962;51.088;3.096;2023-04-19T10:16:34;5.55;;;5.15;;
66163;SDS011;52962;51.088;3.096;2023-04-19T10:19:05;5.82;;;5.22;;
66163;SDS011;52962;51.088;3.096;2023-04-19T10:21:35;5.10;;;4.65;;
66163;SDS011;52962;51.088;3.096;2023-04-19T10:24:05;5.07;;;4.57;;
66163;SDS011;52962;51.088;3.096;2023-04-19T10:29:53;4.25;;;3.45;;
66163;SDS011;52962;51.088;3.096;2023-04-19T10:32:22;4.68;;;4.28;;
66163;SDS011;52962;51.088;3.096;2023-04-19T10:34:51;5.15;;;4.70;;
66163;SDS011;52962;51.088;3.096;2023-04-19T10:37:20;4.20;;;3.80;;
66163;SDS011;52962;51.088;3.096;2023-04-19T10:39:50;4.72;;;4.00;;
66163;SDS011;52962;51.088;3.096;2023-04-19T10:42:20;4.03;;;3.72;;
66163;SDS011;52962;51.088;3.096;2023-04-19T10:47:53;4.93;;;4.43;;
66163;SDS011;52962;51.088;3.096;2023-04-19T10:50:22;5.00;;;4.60;;
66163;SDS011;52962;51.088;3.096;2023-04-19T10:52:50;5.22;;;4.75;;
66163;SDS011;52962;51.088;3.096;2023-04-19T10:55:18;4.60;;;4.20;;
66163;SDS011;52962;51.088;3.096;2023-04-19T10:58:04;4.70;;;4.30;;
66163;SDS011;52962;51.088;3.096;2023-04-19T11:00:33;5.85;;;4.30;;
66163;SDS011;52962;51.088;3.096;2023-04-19T11:06:14;4.28;;;3.88;;
66163;SDS011;52962;51.088;3.096;2023-04-19T11:08:43;5.38;;;4.25;;
66163;SDS011;52962;51.088;3.096;2023-04-19T11:11:12;7.07;;;5.13;;
66163;SDS011;52962;51.088;3.096;2023-04-19T11:13:43;4.03;;;3.63;;
66163;SDS011;52962;51.088;3.096;2023-04-19T11:16:11;4.88;;;4.47;;
66163;SDS011;52962;51.088;3.096;2023-04-19T11:18:39;4.00;;;3.65;;
66163;SDS011;52962;51.088;3.096;2023-04-19T11:21:11;3.92;;;3.63;;
66163;SDS011;52962;51.088;3.096;2023-04-19T11:23:40;5.95;;;4.25;;
66163;SDS011;52962;51.088;3.096;2023-04-19T11:26:09;4.70;;;4.30;;
66163;SDS011;52962;51.088;3.096;2023-04-19T11:28:37;4.55;;;4.15;;
66163;SDS011;52962;51.088;3.096;2023-04-19T11:31:07;4.60;;;4.13;;
66163;SDS011;52962;51.088;3.096;2023-04-19T11:33:36;3.58;;;3.28;;
66163;SDS011;52962;51.088;3.096;2023-04-19T11:36:04;7.18;;;5.00;;
66163;SDS011;52962;51.088;3.096;2023-04-19T11:38:38;4.38;;;4.07;;
66163;SDS011;52962;51.088;3.096;2023-04-19T11:43:34;4.25;;;3.92;;
66163;SDS011;52962;51.088;3.096;2023-04-19T11:46:03;4.25;;;3.85;;
66163;SDS011;52962;51.088;3.096;2023-04-19T11:48:34;4.57;;;4.22;;
66163;SDS011;52962;51.088;3.096;2023-04-19T11:51:02;5.30;;;4.80;;
66163;SDS011;52962;51.088;3.096;2023-04-19T11:53:31;4.78;;;3.95;;
66163;SDS011;52962;51.088;3.096;2023-04-19T11:56:03;7.03;;;5.82;;
66163;SDS011;52962;51.088;3.096;2023-04-19T11:58:33;5.57;;;5.07;;
66163;SDS011;52962;51.088;3.096;2023-04-19T12:01:06;4.25;;;3.33;;
66163;SDS011;52962;51.088;3.096;2023-04-19T12:03:43;5.20;;;4.80;;
66163;SDS011;52962;51.088;3.096;2023-04-19T12:06:14;4.45;;;3.55;;
66163;SDS011;52962;51.088;3.096;2023-04-19T12:08:44;5.35;;;4.65;;
66163;SDS011;52962;51.088;3.096;2023-04-19T12:11:13;5.57;;;4.97;;
66163;SDS011;52962;51.088;3.096;2023-04-19T12:13:44;4.88;;;4.38;;
66163;SDS011;52962;51.088;3.096;2023-04-19T12:16:12;3.70;;;3.40;;
66163;SDS011;52962;51.088;3.096;2023-04-19T12:18:43;4.80;;;3.58;;
66163;SDS011;52962;51.088;3.096;2023-04-19T12:21:23;5.72;;;4.85;;
66163;SDS011;52962;51.088;3.096;2023-04-19T12:23:54;5.55;;;5.05;;
66163;SDS011;52962;51.088;3.096;2023-04-19T12:26:23;6.07;;;3.90;;
66163;SDS011;52962;51.088;3.096;2023-04-19T12:28:52;8.05;;;5.18;;
66163;SDS011;52962;51.088;3.096;2023-04-19T12:31:20;5.25;;;4.78;;
66163;SDS011;52962;51.088;3.096;2023-04-19T12:36:18;5.00;;;4.25;;
66163;SDS011;52962;51.088;3.096;2023-04-19T12:38:47;4.07;;;3.35;;
66163;SDS011;52962;51.088;3.096;2023-04-19T12:41:15;4.57;;;3.80;;
66163;SDS011;52962;51.088;3.096;2023-04-19T12:43:43;4.68;;;3.53;;
66163;SDS011;52962;51.088;3.096;2023-04-19T12:46:11;4.13;;;3.83;;
66163;SDS011;52962;51.088;3.096;2023-04-19T12:48:39;5.13;;;4.32;;
66163;SDS011;52962;51.088;3.096;2023-04-19T12:53:36;5.95;;;4.38;;
66163;SDS011;52962;51.088;3.096;2023-04-19T12:56:05;5.13;;;4.63;;
66163;SDS011;52962;51.088;3.096;2023-04-19T12:58:33;5.10;;;4.55;;
66163;SDS011;52962;51.088;3.096;2023-04-19T13:03:29;4.40;;;4.00;;
66163;SDS011;52962;51.088;3.096;2023-04-19T13:05:58;4.93;;;4.43;;
66163;SDS011;52962;51.088;3.096;2023-04-19T13:08:28;3.90;;;3.17;;
66163;SDS011;52962;51.088;3.096;2023-04-19T13:11:11;4.53;;;4.13;;
66163;SDS011;52962;51.088;3.096;2023-04-19T13:13:40;4.25;;;3.65;;
66163;SDS011;52962;51.088;3.096;2023-04-19T13:16:08;4.22;;;3.75;;
66163;SDS011;52962;51.088;3.096;2023-04-19T13:18:37;4.13;;;3.45;;
66163;SDS011;52962;51.088;3.096;2023-04-19T13:23:35;3.50;;;3.20;;
66163;SDS011;52962;51.088;3.096;2023-04-19T13:26:03;3.92;;;3.63;;
66163;SDS011;52962;51.088;3.096;2023-04-19T13:28:32;5.68;;;3.38;;
66163;SDS011;52962;51.088;3.096;2023-04-19T13:31:02;2.63;;;2.42;;
66163;SDS011;52962;51.088;3.096;2023-04-19T13:33:30;4.63;;;3.55;;
66163;SDS011;52962;51.088;3.096;2023-04-19T13:35:58;3.17;;;2.97;;
66163;SDS011;52962;51.088;3.096;2023-04-19T13:38:27;2.88;;;2.58;;
66163;SDS011;52962;51.088;3.096;2023-04-19T13:40:57;3.20;;;2.53;;
66163;SDS011;52962;51.088;3.096;2023-04-19T13:43:25;2.83;;;2.63;;
66163;SDS011;52962;51.088;3.096;2023-04-19T13:45:53;3.63;;;2.22;;
66163;SDS011;52962;51.088;3.096;2023-04-19T13:48:21;2.75;;;2.55;;
66163;SDS011;52962;51.088;3.096;2023-04-19T13:50:52;4.10;;;1.98;;
66163;SDS011;52962;51.088;3.096;2023-04-19T13:55:49;2.13;;;2.03;;
66163;SDS011;52962;51.088;3.096;2023-04-19T13:58:20;3.72;;;2.42;;
66163;SDS011;52962;51.088;3.096;2023-04-19T14:00:50;2.83;;;2.40;;
66163;SDS011;52962;51.088;3.096;2023-04-19T14:03:20;2.47;;;2.28;;
66163;SDS011;52962;51.088;3.096;2023-04-19T14:05:49;2.63;;;2.42;;
66163;SDS011;52962;51.088;3.096;2023-04-19T14:10:45;4.50;;;3.03;;
66163;SDS011;52962;51.088;3.096;2023-04-19T14:13:13;2.78;;;2.45;;
66163;SDS011;52962;51.088;3.096;2023-04-19T14:18:10;2.38;;;2.17;;
66163;SDS011;52962;51.088;3.096;2023-04-19T14:20:38;2.85;;;2.58;;
66163;SDS011;52962;51.088;3.096;2023-04-19T14:25:34;2.58;;;2.30;;
66163;SDS011;52962;51.088;3.096;2023-04-19T14:28:02;2.08;;;1.95;;
66163;SDS011;52962;51.088;3.096;2023-04-19T14:30:31;2.63;;;2.17;;
66163;SDS011;52962;51.088;3.096;2023-04-19T14:33:00;2.00;;;1.90;;
66163;SDS011;52962;51.088;3.096;2023-04-19T14:35:28;1.77;;;1.67;;
66163;SDS011;52962;51.088;3.096;2023-04-19T14:37:56;1.85;;;1.70;;
66163;SDS011;52962;51.088;3.096;2023-04-19T14:40:25;2.13;;;1.77;;
66163;SDS011;52962;51.088;3.096;2023-04-19T14:42:53;1.63;;;1.52;;
66163;SDS011;52962;51.088;3.096;2023-04-19T14:47:48;2.20;;;1.95;;
66163;SDS011;52962;51.088;3.096;2023-04-19T14:50:18;1.98;;;1.85;;
66163;SDS011;52962;51.088;3.096;2023-04-19T14:52:47;2.38;;;2.13;;
66163;SDS011;52962;51.088;3.096;2023-04-19T14:55:15;1.80;;;1.60;;
66163;SDS011;52962;51.088;3.096;2023-04-19T14:57:43;2.35;;;1.60;;
66163;SDS011;52962;51.088;3.096;2023-04-19T15:00:11;1.98;;;1.88;;
66163;SDS011;52962;51.088;3.096;2023-04-19T15:02:40;1.85;;;1.73;;
66163;SDS011;52962;51.088;3.096;2023-04-19T15:05:08;1.40;;;1.30;;
66163;SDS011;52962;51.088;3.096;2023-04-19T15:07:38;1.55;;;1.45;;
66163;SDS011;52962;51.088;3.096;2023-04-19T15:10:06;2.03;;;1.52;;
66163;SDS011;52962;51.088;3.096;2023-04-19T15:12:35;2.92;;;1.50;;
66163;SDS011;52962;51.088;3.096;2023-04-19T15:17:31;2.65;;;1.60;;
66163;SDS011;52962;51.088;3.096;2023-04-19T15:19:59;1.42;;;1.33;;
66163;SDS011;52962;51.088;3.096;2023-04-19T15:22:27;2.15;;;1.33;;
66163;SDS011;52962;51.088;3.096;2023-04-19T15:24:57;4.57;;;1.92;;
66163;SDS011;52962;51.088;3.096;2023-04-19T15:27:26;1.63;;;1.52;;
66163;SDS011;52962;51.088;3.096;2023-04-19T15:29:54;3.00;;;1.70;;
66163;SDS011;52962;51.088;3.096;2023-04-19T15:34:50;3.55;;;1.50;;
66163;SDS011;52962;51.088;3.096;2023-04-19T15:37:18;4.25;;;2.00;;
66163;SDS011;52962;51.088;3.096;2023-04-19T15:39:47;1.60;;;1.50;;
66163;SDS011;52962;51.088;3.096;2023-04-19T15:42:17;4.75;;;1.60;;
66163;SDS011;52962;51.088;3.096;2023-04-19T15:44:45;1.60;;;1.50;;
66163;SDS011;52962;51.088;3.096;2023-04-19T15:47:13;1.48;;;1.38;;
66163;SDS011;52962;51.088;3.096;2023-04-19T15:49:41;1.58;;;1.48;;
66163;SDS011;52962;51.088;3.096;2023-04-19T15:52:09;1.75;;;1.65;;
66163;SDS011;52962;51.088;3.096;2023-04-19T15:57:05;1.65;;;1.50;;
66163;SDS011;52962;51.088;3.096;2023-04-19T15:59:35;1.52;;;1.42;;
66163;SDS011;52962;51.088;3.096;2023-04-19T16:02:03;2.35;;;1.50;;
66163;SDS011;52962;51.088;3.096;2023-04-19T16:04:31;1.90;;;1.30;;
66163;SDS011;52962;51.088;3.096;2023-04-19T16:06:59;1.30;;;1.13;;
66163;SDS011;52962;51.088;3.096;2023-04-19T16:11:55;1.55;;;1.45;;
66163;SDS011;52962;51.088;3.096;2023-04-19T16:14:23;1.50;;;1.40;;
66163;SDS011;52962;51.088;3.096;2023-04-19T16:16:53;2.45;;;1.50;;
66163;SDS011;52962;51.088;3.096;2023-04-19T16:19:21;2.80;;;1.60;;